Time;durP1;ratioP1;P1;durP2;ratioP2;P2;SDS_P1;SDS_P2;PMS_P1;PMS_P2;Temp;Humidity;BMP_temperature;BMP_pressure;BME280_temperature;BME280_humidity;BME280_pressure;Samples;Min_cycle;Max_cycle;Signal;HPM_P1;HPM_P2
2023/03/23 00:01:54;;;;;;;;;;;;;;;17.15;50.51;99343.84;4986902;28;6779;-73
2023/03/23 00:04:20;;;;;;;;;;;;;;;17.14;50.78;99333.47;4986784;28;6776;-72
2023/03/23 00:06:46;;;;;;;;;;;;;;;17.13;50.33;99339.50;4981452;28;7280;-74
2023/03/23 00:09:14;;;;;;;;;;;;;;;17.12;50.32;99341.22;4990049;28;7075;-71
2023/03/23 00:11:42;;;;;;;;;;;;;;;17.13;50.27;99340.34;4979418;28;7023;-73
2023/03/23 00:14:12;;;;;;;;;;;;;;;17.12;50.51;99332.59;4958170;28;7063;-73
2023/03/23 00:16:44;;;;;;;;;;;;;;;17.13;50.52;99360.22;4982320;28;7392;-74
2023/03/23 00:19:15;;;;;;;;;;;;;;;17.13;50.53;99362.81;4985228;28;6971;-71
2023/03/23 00:21:43;;;;;;;;;;;;;;;17.10;51.01;99347.28;4986229;28;6796;-73
2023/03/23 00:24:15;;;;;;;;;;;;;;;17.05;51.12;99348.09;4986044;28;6792;-75
2023/03/23 00:26:47;;;;;;;;;;;;;;;17.00;51.30;99347.22;4988266;28;6991;-73
2023/03/23 00:29:21;;;;;;;;;;;;;;;16.99;51.06;99332.50;4977469;28;6994;-73
2023/03/23 00:31:48;;;;;;;;;;;;;;;16.98;51.23;99335.09;4972933;28;6847;-72
2023/03/23 00:34:20;;;;;;;;;;;;;;;17.01;51.29;99324.78;4975056;28;7194;-73
2023/03/23 00:36:56;;;;;;;;;;;;;;;17.03;51.33;99349.81;4951945;28;8491;-72
2023/03/23 00:39:25;;;;;;;;;;;;;;;17.06;51.20;99336.03;4978976;28;6815;-73
2023/03/23 00:41:51;;;;;;;;;;;;;;;17.06;51.10;99325.69;4982874;28;8574;-73
2023/03/23 00:44:17;;;;;;;;;;;;;;;17.08;51.19;99339.47;4986026;28;6804;-75
2023/03/23 00:46:48;;;;;;;;;;;;;;;17.11;50.96;99338.63;4975381;28;6768;-75
2023/03/23 00:49:24;;;;;;;;;;;;;;;17.15;50.59;99337.78;4986660;28;6784;-74
2023/03/23 00:51:52;;;;;;;;;;;;;;;17.16;50.80;99349.88;4971907;28;6800;-74
2023/03/23 00:54:19;;;;;;;;;;;;;;;17.17;50.67;99349.00;4946852;28;7542;-75
2023/03/23 00:56:45;;;;;;;;;;;;;;;17.16;50.80;99335.22;4985430;28;7045;-73
2023/03/23 00:59:11;;;;;;;;;;;;;;;17.14;51.48;99331.75;4968517;28;7015;-75
2023/03/23 01:01:37;;;;;;;;;;;;;;;17.16;51.32;99309.31;4964552;28;6848;-75
2023/03/23 01:04:06;;;;;;;;;;;;;;;17.06;51.28;99307.56;4979817;28;6947;-74
2023/03/23 01:06:38;;;;;;;;;;;;;;;16.89;51.85;99341.94;4986067;28;7240;-72
2023/03/23 01:09:06;;;;;;;;;;;;;;;16.70;52.38;99345.28;4986796;28;9594;-75
2023/03/23 01:11:32;;;;;;;;;;;;;;;16.52;53.06;99355.53;4983646;28;6964;-73
2023/03/23 01:13:58;;;;;;;;;;;;;;;16.39;53.45;99358.88;4983578;28;6764;-72
2023/03/23 01:16:24;;;;;;;;;;;;;;;16.24;54.16;99346.69;4988009;28;6784;-72
2023/03/23 01:18:50;;;;;;;;;;;;;;;16.12;55.00;99344.88;4987009;28;6803;-72
2023/03/23 01:21:19;;;;;;;;;;;;;;;16.01;55.08;99343.91;4988795;28;6975;-75
2023/03/23 01:23:46;;;;;;;;;;;;;;;15.91;55.24;99317.13;4981603;28;6975;-74
2023/03/23 01:26:20;;;;;;;;;;;;;;;15.81;55.98;99309.28;4987678;28;7898;-71
2023/03/23 01:28:47;;;;;;;;;;;;;;;15.73;56.44;99303.16;4983028;28;7142;-73
2023/03/23 01:31:19;;;;;;;;;;;;;;;15.67;56.76;99314.31;4982467;28;6808;-71
2023/03/23 01:33:46;;;;;;;;;;;;;;;15.63;56.65;99286.69;4985467;28;6804;-73
2023/03/23 01:36:16;;;;;;;;;;;;;;;15.61;56.93;99265.16;4977711;28;6792;-73
2023/03/23 01:38:47;;;;;;;;;;;;;;;15.62;57.07;99284.97;5001700;28;7272;-72
2023/03/23 01:41:15;;;;;;;;;;;;;;;15.64;57.10;99303.06;4985729;28;7604;-73
2023/03/23 01:44:16;;;;;;;;;;;;;;;15.65;56.79;99300.53;4970035;28;6994;-73
2023/03/23 01:46:43;;;;;;;;;;;;;;;15.66;57.10;99289.34;4956201;28;6797;-74
2023/03/23 01:49:21;;;;;;;;;;;;;;;15.69;57.14;99296.22;4964390;28;6800;-73
2023/03/23 01:51:55;;;;;;;;;;;;;;;15.74;57.25;99304.00;4969675;28;6815;-76
2023/03/23 01:54:24;;;;;;;;;;;;;;;15.78;57.04;99298.03;4985583;28;6800;-72
2023/03/23 01:57:13;;;;;;;;;;;;;;;15.82;56.92;99280.00;4969769;28;6839;-74
2023/03/23 01:59:44;;;;;;;;;;;;;;;15.87;56.25;99269.72;4986446;28;7023;-74
2023/03/23 02:02:12;;;;;;;;;;;;;;;15.90;56.26;99272.34;4965698;28;6812;-75
2023/03/23 02:04:39;;;;;;;;;;;;;;;15.93;56.31;99269.81;4969183;28;7013;-74
2023/03/23 02:07:05;;;;;;;;;;;;;;;15.96;56.26;99258.59;4980024;28;7067;-75
2023/03/23 02:09:31;;;;;;;;;;;;;;;15.99;56.21;99258.66;4988808;28;7333;-72
2023/03/23 02:11:57;;;;;;;;;;;;;;;16.02;56.21;99261.25;4983293;28;7331;-73
2023/03/23 02:14:28;;;;;;;;;;;;;;;16.06;56.06;99269.88;4982866;28;6984;-72
2023/03/23 02:17:17;;;;;;;;;;;;;;;16.07;55.64;99274.19;4987064;28;8091;-74
2023/03/23 02:20:13;;;;;;;;;;;;;;;16.10;55.84;99271.63;4970013;28;6876;-72
2023/03/23 02:23:19;;;;;;;;;;;;;;;16.10;55.57;99276.78;4987926;28;6796;-73
2023/03/23 02:26:46;;;;;;;;;;;;;;;16.10;55.51;99288.00;4992332;28;7122;-74
2023/03/23 02:29:40;;;;;;;;;;;;;;;16.13;55.80;99284.59;4971217;28;6828;-74
2023/03/23 02:32:23;;;;;;;;;;;;;;;16.15;55.45;99285.47;4982113;28;7001;-75
2023/03/23 02:35:04;;;;;;;;;;;;;;;16.20;55.65;99262.22;4972568;28;6999;-73
2023/03/23 02:37:47;;;;;;;;;;;;;;;16.22;55.92;99265.69;4980914;28;8587;-72
2023/03/23 02:40:23;;;;;;;;;;;;;;;16.27;55.68;99273.47;4958832;28;6953;-73
2023/03/23 02:42:55;;;;;;;;;;;;;;;16.30;55.33;99265.72;4972224;28;6971;-73
2023/03/23 02:45:27;;;;;;;;;;;;;;;16.31;55.45;99263.16;4985698;28;9277;-73
2023/03/23 02:47:55;;;;;;;;;;;;;;;16.33;55.48;99263.19;4987562;28;6796;-72
2023/03/23 02:50:27;;;;;;;;;;;;;;;16.36;55.34;99255.44;4971018;28;7021;-72
2023/03/23 02:52:56;;;;;;;;;;;;;;;16.37;55.83;99263.22;4976627;28;6800;-72
2023/03/23 02:55:24;;;;;;;;;;;;;;;16.37;55.16;99250.28;4982731;28;6796;-74
2023/03/23 02:57:53;;;;;;;;;;;;;;;16.40;55.45;99249.41;4986649;28;7081;-73
2023/03/23 03:00:20;;;;;;;;;;;;;;;16.42;55.13;99255.47;4983390;28;7258;-75
2023/03/23 03:02:53;;;;;;;;;;;;;;;16.43;55.45;99262.38;4971700;28;7281;-74
2023/03/23 03:06:14;;;;;;;;;;;;;;;16.44;55.04;99238.25;4973300;28;7079;-76
2023/03/23 03:08:55;;;;;;;;;;;;;;;16.42;55.21;99263.25;4916910;28;6840;-75
2023/03/23 03:11:27;;;;;;;;;;;;;;;16.43;55.06;99264.97;4968365;28;6808;-73
2023/03/23 03:14:10;;;;;;;;;;;;;;;16.44;55.55;99258.94;4982134;28;6799;-73
2023/03/23 03:17:02;;;;;;;;;;;;;;;16.45;55.12;99239.97;4968677;28;6804;-72
2023/03/23 03:19:39;;;;;;;;;;;;;;;16.46;55.05;99248.56;4987189;28;8212;-73
2023/03/23 03:22:07;;;;;;;;;;;;;;;16.46;55.11;99239.13;4986032;28;7217;-73
2023/03/23 03:24:37;;;;;;;;;;;;;;;16.44;55.21;99251.19;4969705;28;7103;-73
2023/03/23 03:27:16;;;;;;;;;;;;;;;16.46;55.00;99248.56;4988979;28;6918;-73
2023/03/23 03:29:50;;;;;;;;;;;;;;;16.45;55.02;99232.22;4984740;28;6989;-73
2023/03/23 03:32:24;;;;;;;;;;;;;;;16.45;55.18;99236.50;4991098;28;6966;-75
2023/03/23 03:34:53;;;;;;;;;;;;;;;16.46;54.97;99231.34;4984571;28;7024;-75
2023/03/23 03:37:20;;;;;;;;;;;;;;;16.45;54.96;99234.81;4986581;28;6812;-73
2023/03/23 03:39:46;;;;;;;;;;;;;;;16.46;54.66;99227.88;4973497;28;7770;-75
2023/03/23 03:42:11;;;;;;;;;;;;;;;16.47;54.72;99251.19;4976985;28;7187;-75
2023/03/23 03:44:37;;;;;;;;;;;;;;;16.49;54.62;99233.94;4985497;28;6848;-74
2023/03/23 03:47:03;;;;;;;;;;;;;;;16.50;54.47;99242.59;4970985;28;6976;-73
2023/03/23 03:49:29;;;;;;;;;;;;;;;16.50;54.57;99246.00;4989103;28;6807;-72
2023/03/23 03:51:55;;;;;;;;;;;;;;;16.53;54.69;99237.41;4982146;28;6993;-72
2023/03/23 03:54:20;;;;;;;;;;;;;;;16.54;54.45;99246.06;4962164;28;7961;-73
2023/03/23 03:56:46;;;;;;;;;;;;;;;16.56;54.45;99245.19;4960784;28;6772;-76
2023/03/23 03:59:12;;;;;;;;;;;;;;;16.57;54.37;99240.88;4981132;28;7194;-75
2023/03/23 04:01:38;;;;;;;;;;;;;;;16.57;54.23;99243.47;4984107;28;6815;-75
2023/03/23 04:04:08;;;;;;;;;;;;;;;16.58;54.06;99250.38;4966828;28;7186;-75
2023/03/23 04:06:35;;;;;;;;;;;;;;;16.56;54.27;99252.94;4965827;28;8848;-74
2023/03/23 04:09:05;;;;;;;;;;;;;;;16.55;54.02;99245.19;4982596;28;6987;-75
2023/03/23 04:11:32;;;;;;;;;;;;;;;16.54;53.96;99252.06;4986196;28;6796;-75
2023/03/23 04:13:58;;;;;;;;;;;;;;;16.55;53.92;99258.13;4968308;28;6804;-75
2023/03/23 04:16:23;;;;;;;;;;;;;;;16.50;53.99;99251.19;4984800;28;6772;-75
2023/03/23 04:18:49;;;;;;;;;;;;;;;16.47;54.16;99271.88;4989302;28;7042;-75
2023/03/23 04:21:16;;;;;;;;;;;;;;;16.47;53.83;99263.25;4966802;28;8271;-75
2023/03/23 04:23:41;;;;;;;;;;;;;;;16.45;54.25;99268.41;4979740;28;10202;-75
2023/03/23 04:26:07;;;;;;;;;;;;;;;16.44;54.04;99276.16;4979928;28;8011;-75
2023/03/23 04:28:33;;;;;;;;;;;;;;;16.43;54.11;99275.31;4979269;28;7861;-75
2023/03/23 04:31:00;;;;;;;;;;;;;;;16.41;54.36;99271.81;4980692;28;7090;-75
2023/03/23 04:33:29;;;;;;;;;;;;;;;16.41;54.14;99278.72;4964691;28;7077;-75
2023/03/23 04:36:00;;;;;;;;;;;;;;;16.40;54.13;99269.25;4977293;28;8146;-75
2023/03/23 04:38:29;;;;;;;;;;;;;;;16.40;54.17;99274.41;4978967;28;7251;-75
2023/03/23 04:40:55;;;;;;;;;;;;;;;16.39;54.20;99273.53;4983295;28;6867;-75
2023/03/23 04:43:24;;;;;;;;;;;;;;;16.42;54.12;99273.59;4973515;28;7132;-74
2023/03/23 04:45:58;;;;;;;;;;;;;;;16.42;53.85;99267.53;4984105;28;6967;-75
2023/03/23 04:48:30;;;;;;;;;;;;;;;16.41;54.42;99277.00;4969771;28;7035;-75
2023/03/23 04:50:59;;;;;;;;;;;;;;;16.42;54.18;99283.94;4975332;28;6999;-75
2023/03/23 04:53:25;;;;;;;;;;;;;;;16.41;54.33;99284.75;4979090;28;7297;-75
2023/03/23 04:55:50;;;;;;;;;;;;;;;16.44;54.50;99292.56;4973785;28;6784;-75
2023/03/23 04:58:16;;;;;;;;;;;;;;;16.46;54.05;99287.38;4968381;28;7063;-74
2023/03/23 05:00:49;;;;;;;;;;;;;;;16.45;54.33;99288.22;4976114;28;7245;-74
2023/03/23 05:03:17;;;;;;;;;;;;;;;16.43;53.92;99282.19;4988192;28;6796;-71
2023/03/23 05:05:46;;;;;;;;;;;;;;;16.42;54.02;99293.38;4973095;28;6784;-75
2023/03/23 05:08:14;;;;;;;;;;;;;;;16.38;54.06;99287.31;4966267;28;7141;-73
2023/03/23 05:10:39;;;;;;;;;;;;;;;16.37;54.05;99291.66;4969156;28;7941;-72
2023/03/23 05:13:05;;;;;;;;;;;;;;;16.36;54.05;99296.81;4983134;28;6776;-72
2023/03/23 05:15:31;;;;;;;;;;;;;;;16.35;53.78;99289.91;4986421;28;6783;-73
2023/03/23 05:17:57;;;;;;;;;;;;;;;16.34;53.43;99298.53;4990984;28;7137;-74
2023/03/23 05:20:22;;;;;;;;;;;;;;;16.33;53.84;99289.88;4968224;28;6826;-72
2023/03/23 05:22:49;;;;;;;;;;;;;;;16.29;53.66;99282.09;4981007;28;6784;-75
2023/03/23 05:25:18;;;;;;;;;;;;;;;16.26;53.46;99297.59;4962253;28;8246;-75
2023/03/23 05:27:48;;;;;;;;;;;;;;;16.26;53.86;99282.94;4979748;28;6980;-73
2023/03/23 05:30:16;;;;;;;;;;;;;;;16.23;53.97;99290.69;4981413;28;6956;-73
2023/03/23 05:32:44;;;;;;;;;;;;;;;16.22;53.58;99299.28;4981285;28;6975;-75
2023/03/23 05:35:12;;;;;;;;;;;;;;;16.22;53.80;99295.00;4960038;28;6796;-72
2023/03/23 05:37:38;;;;;;;;;;;;;;;16.20;53.10;99283.75;4983401;28;6788;-72
2023/03/23 05:40:06;;;;;;;;;;;;;;;16.20;53.24;99307.03;4978759;28;6780;-75
2023/03/23 05:42:36;;;;;;;;;;;;;;;16.22;53.52;99304.47;4979770;28;7375;-73
2023/03/23 05:45:03;;;;;;;;;;;;;;;16.25;53.33;99312.22;4986337;28;6788;-72
2023/03/23 05:47:30;;;;;;;;;;;;;;;16.27;53.15;99313.09;4968584;28;6976;-72
2023/03/23 05:49:56;;;;;;;;;;;;;;;16.32;53.29;99313.13;4969730;28;7247;-75
2023/03/23 05:52:23;;;;;;;;;;;;;;;16.36;52.90;99314.91;4985411;28;7031;-73
2023/03/23 05:54:49;;;;;;;;;;;;;;;16.40;53.17;99313.22;4990602;28;6796;-73
2023/03/23 05:57:15;;;;;;;;;;;;;;;16.43;53.10;99318.38;4982043;28;7237;-73
2023/03/23 05:59:41;;;;;;;;;;;;;;;16.47;52.63;99323.59;4990438;28;7006;-73
2023/03/23 06:02:06;;;;;;;;;;;;;;;16.50;52.67;99322.75;4986784;28;6772;-72
2023/03/23 06:04:33;;;;;;;;;;;;;;;16.50;52.59;99318.44;4986667;28;6843;-73
2023/03/23 06:07:01;;;;;;;;;;;;;;;16.54;52.33;99323.66;4971557;28;6979;-74
2023/03/23 06:09:26;;;;;;;;;;;;;;;16.53;52.22;99322.75;4985914;28;6856;-73
2023/03/23 06:11:52;;;;;;;;;;;;;;;16.51;52.17;99314.13;4987181;28;6889;-72
2023/03/23 06:14:17;;;;;;;;;;;;;;;16.53;52.23;99317.59;4981128;28;6926;-73
2023/03/23 06:16:43;;;;;;;;;;;;;;;16.52;51.99;99326.22;4958979;28;7231;-72
2023/03/23 06:19:09;;;;;;;;;;;;;;;16.53;51.93;99320.19;4981379;28;6923;-73
2023/03/23 06:21:34;;;;;;;;;;;;;;;16.53;52.02;99320.19;4966885;28;7146;-73
2023/03/23 06:24:00;;;;;;;;;;;;;;;16.53;52.07;99315.00;4981323;28;6775;-73
2023/03/23 06:26:38;;;;;;;;;;;;;;;16.55;52.23;99323.63;4984409;28;6776;-75
2023/03/23 06:29:10;;;;;;;;;;;;;;;16.55;51.88;99330.53;4970645;28;7075;-74
2023/03/23 06:31:42;;;;;;;;;;;;;;;16.55;51.77;99320.19;4988046;28;6967;-75
2023/03/23 06:34:09;;;;;;;;;;;;;;;16.52;52.10;99319.34;4989960;28;6860;-75
2023/03/23 06:36:36;;;;;;;;;;;;;;;16.57;51.82;99334.00;4981613;28;7194;-74
2023/03/23 06:39:04;;;;;;;;;;;;;;;16.59;51.98;99350.38;4975630;28;6956;-73
2023/03/23 06:41:32;;;;;;;;;;;;;;;16.63;51.91;99349.56;4972587;28;7173;-73
2023/03/23 06:43:58;;;;;;;;;;;;;;;16.63;52.07;99345.25;4970418;28;6864;-73
2023/03/23 06:46:24;;;;;;;;;;;;;;;16.64;52.03;99346.13;5003242;28;7895;-74
2023/03/23 06:48:50;;;;;;;;;;;;;;;16.64;51.75;99356.47;4984995;28;6791;-74
2023/03/23 06:51:17;;;;;;;;;;;;;;;16.66;52.03;99360.81;4974029;28;6979;-75
2023/03/23 06:53:44;;;;;;;;;;;;;;;16.67;51.81;99351.31;4973348;28;7054;-73
2023/03/23 06:56:12;;;;;;;;;;;;;;;16.68;51.43;99355.63;4981685;28;8538;-73
2023/03/23 06:58:37;;;;;;;;;;;;;;;16.70;51.33;99355.66;4984269;28;6812;-75
2023/03/23 07:01:03;;;;;;;;;;;;;;;16.70;51.39;99364.25;4983908;28;6768;-75
2023/03/23 07:03:30;;;;;;;;;;;;;;;16.74;51.26;99367.72;4981731;28;6772;-75
2023/03/23 07:05:58;;;;;;;;;;;;;;;16.79;51.33;99373.81;4976357;28;6855;-75
2023/03/23 07:08:24;;;;;;;;;;;;;;;16.85;51.14;99365.22;4963097;28;7023;-75
2023/03/23 07:10:52;;;;;;;;;;;;;;;16.87;51.34;99364.38;4973817;28;6851;-75
2023/03/23 07:13:19;;;;;;;;;;;;;;;16.89;50.62;99362.66;4976974;28;7231;-75
2023/03/23 07:15:45;;;;;;;;;;;;;;;16.92;50.81;99354.91;4978031;28;6788;-75
2023/03/23 07:18:11;;;;;;;;;;;;;;;16.96;50.31;99363.53;4988572;28;6796;-75
2023/03/23 07:20:37;;;;;;;;;;;;;;;16.99;50.24;99357.53;4968356;28;6852;-75
2023/03/23 07:23:05;;;;;;;;;;;;;;;17.01;50.26;99350.66;4982337;28;7201;-75
2023/03/23 07:25:32;;;;;;;;;;;;;;;17.05;50.58;99348.09;4969069;28;7269;-75
2023/03/23 07:28:00;;;;;;;;;;;;;;;17.09;50.00;99354.16;4984366;28;7015;-75
2023/03/23 07:30:28;;;;;;;;;;;;;;;17.12;49.93;99361.94;4990012;28;6796;-75
2023/03/23 07:32:54;;;;;;;;;;;;;;;17.15;49.64;99340.38;5002370;28;6971;-75
2023/03/23 07:35:20;;;;;;;;;;;;;;;17.19;50.11;99344.69;4971377;28;8718;-75
2023/03/23 07:37:48;;;;;;;;;;;;;;;17.24;49.73;99347.28;4963125;28;7089;-75
2023/03/23 07:40:15;;;;;;;;;;;;;;;17.28;49.64;99352.50;4989032;28;6788;-75
2023/03/23 07:42:43;;;;;;;;;;;;;;;17.30;49.94;99350.81;4963547;28;7013;-75
2023/03/23 07:45:11;;;;;;;;;;;;;;;17.33;49.46;99348.22;4987348;28;7770;-75
2023/03/23 07:47:38;;;;;;;;;;;;;;;17.36;49.20;99357.72;4988304;28;6780;-75
2023/03/23 07:50:06;;;;;;;;;;;;;;;17.40;49.12;99356.00;4975334;28;6934;-75
2023/03/23 07:52:33;;;;;;;;;;;;;;;17.44;49.05;99355.16;4986160;28;6939;-75
2023/03/23 07:54:58;;;;;;;;;;;;;;;17.47;48.57;99350.84;4964528;28;6772;-75
2023/03/23 07:57:24;;;;;;;;;;;;;;;17.51;49.17;99354.31;4981082;28;6764;-75
2023/03/23 07:59:50;;;;;;;;;;;;;;;17.55;48.78;99363.81;4988131;28;7062;-75
2023/03/23 08:02:16;;;;;;;;;;;;;;;17.59;48.97;99355.19;4984672;28;6963;-75
2023/03/23 08:04:42;;;;;;;;;;;;;;;17.62;48.64;99349.13;4984665;28;6768;-75
2023/03/23 08:07:08;;;;;;;;;;;;;;;17.66;48.42;99370.75;4988088;28;6776;-75
2023/03/23 08:09:33;;;;;;;;;;;;;;;17.71;48.77;99363.84;4987686;28;6976;-75
2023/03/23 08:11:59;;;;;;;;;;;;;;;17.75;47.90;99387.19;4973725;28;7475;-75
2023/03/23 08:14:27;;;;;;;;;;;;;;;17.82;48.63;99375.09;4987858;28;6906;-75
2023/03/23 08:16:55;;;;;;;;;;;;;;;17.87;48.09;99367.34;4982194;28;7041;-75
2023/03/23 08:19:22;;;;;;;;;;;;;;;17.94;48.23;99369.09;4986273;28;7280;-75
2023/03/23 08:21:49;;;;;;;;;;;;;;;18.00;47.58;99381.19;4971890;28;6980;-75
2023/03/23 08:24:15;;;;;;;;;;;;;;;18.07;47.53;99382.97;4985958;28;6999;-75
2023/03/23 08:26:41;;;;;;;;;;;;;;;18.11;47.71;99384.69;4970296;28;6813;-75
2023/03/23 08:29:08;;;;;;;;;;;;;;;18.16;47.40;99385.56;4985883;28;6769;-75
2023/03/23 08:31:35;;;;;;;;;;;;;;;18.23;47.43;99391.63;4958561;28;7105;-75
2023/03/23 08:34:04;;;;;;;;;;;;;;;18.31;47.75;99397.66;4964848;28;7229;-75
2023/03/23 08:36:32;;;;;;;;;;;;;;;18.36;47.65;99384.69;4990338;28;6796;-75
2023/03/23 08:38:58;;;;;;;;;;;;;;;18.38;47.21;99395.94;4980691;28;7185;-75
2023/03/23 08:41:23;;;;;;;;;;;;;;;18.39;47.35;99401.97;4983164;28;6968;-75
2023/03/23 08:43:50;;;;;;;;;;;;;;;18.37;47.38;99390.75;4980340;28;7154;-75
2023/03/23 08:46:16;;;;;;;;;;;;;;;18.36;47.40;99389.88;4985371;28;6796;-75
2023/03/23 08:48:43;;;;;;;;;;;;;;;18.37;47.26;99383.84;4979932;28;7413;-75
2023/03/23 08:51:10;;;;;;;;;;;;;;;18.32;47.16;99383.84;4982676;28;7130;-75
2023/03/23 08:53:36;;;;;;;;;;;;;;;18.29;47.19;99390.75;4975630;28;6860;-75
2023/03/23 08:56:08;;;;;;;;;;;;;;;18.23;47.07;99396.81;4982581;28;7133;-76
2023/03/23 08:58:37;;;;;;;;;;;;;;;18.20;47.35;99396.78;4980297;28;7222;-75
2023/03/23 09:01:06;;;;;;;;;;;;;;;18.17;47.12;99397.66;4954470;28;7001;-75
2023/03/23 09:03:34;;;;;;;;;;;;;;;18.17;47.23;99396.78;4976878;28;7186;-75
2023/03/23 09:06:06;;;;;;;;;;;;;;;18.15;46.90;99408.88;4971446;28;6812;-75
2023/03/23 09:08:33;;;;;;;;;;;;;;;18.14;47.40;99409.75;4979102;28;7202;-75
2023/03/23 09:11:00;;;;;;;;;;;;;;;18.09;47.02;99411.47;4982663;28;7218;-75
2023/03/23 09:13:26;;;;;;;;;;;;;;;18.06;46.81;99417.53;4983403;28;6808;-75
2023/03/23 09:15:52;;;;;;;;;;;;;;;18.04;47.16;99425.31;4989398;28;6942;-75
2023/03/23 09:18:18;;;;;;;;;;;;;;;18.03;47.39;99430.44;4972585;28;7567;-75
2023/03/23 09:20:45;;;;;;;;;;;;;;;18.00;47.81;99433.88;4958863;28;8868;-75
2023/03/23 09:23:12;;;;;;;;;;;;;;;17.99;47.51;99424.38;4981133;28;6784;-75
2023/03/23 09:25:39;;;;;;;;;;;;;;;18.01;47.21;99427.88;4976872;28;7055;-75
2023/03/23 09:28:04;;;;;;;;;;;;;;;18.04;47.38;99429.59;4972986;28;6991;-75
2023/03/23 09:30:33;;;;;;;;;;;;;;;18.11;47.39;99436.53;4985790;28;7022;-75
2023/03/23 09:33:04;;;;;;;;;;;;;;;18.16;47.22;99437.44;4966018;28;6927;-75
2023/03/23 09:35:34;;;;;;;;;;;;;;;18.20;47.11;99421.88;4979886;28;6965;-75
2023/03/23 09:38:00;;;;;;;;;;;;;;;18.13;47.70;99429.63;4971545;28;6815;-75
2023/03/23 09:41:08;;;;;;;;;;;;;;;17.99;47.94;99432.16;4979937;28;7565;-75
2023/03/23 09:44:04;;;;;;;;;;;;;;;17.80;48.72;99420.91;4981575;28;6998;-75
2023/03/23 09:47:25;;;;;;;;;;;;;;;17.74;48.63;99426.94;4983092;28;8206;-75
2023/03/23 09:49:59;;;;;;;;;;;;;;;17.71;48.78;99421.72;4909228;29;6880;-75
2023/03/23 09:52:47;;;;;;;;;;;;;;;17.71;48.31;99426.06;4985834;28;6820;-75
2023/03/23 09:55:17;;;;;;;;;;;;;;;17.68;48.80;99437.25;4982116;28;6804;-75
2023/03/23 09:57:55;;;;;;;;;;;;;;;17.64;49.07;99445.91;4980099;28;7849;-75
2023/03/23 10:00:37;;;;;;;;;;;;;;;17.48;49.68;99450.16;4984930;28;6820;-75
2023/03/23 10:03:20;;;;;;;;;;;;;;;17.35;50.26;99457.00;4978592;28;6812;-75
2023/03/23 10:05:53;;;;;;;;;;;;;;;17.28;50.22;99445.72;4965197;28;6816;-75
2023/03/23 10:08:31;;;;;;;;;;;;;;;17.17;50.84;99455.16;4979479;28;7671;-75
2023/03/23 10:11:34;;;;;;;;;;;;;;;17.04;51.57;99455.09;4981591;28;6865;-75
2023/03/23 10:14:22;;;;;;;;;;;;;;;16.91;52.33;99448.94;4978708;28;6819;-75
2023/03/23 10:17:00;;;;;;;;;;;;;;;16.87;52.63;99452.34;4985416;28;6807;-75
2023/03/23 10:19:35;;;;;;;;;;;;;;;16.88;52.26;99459.25;4982323;28;6990;-75
2023/03/23 10:22:31;;;;;;;;;;;;;;;17.01;52.91;99449.03;4967140;28;6788;-75
2023/03/23 10:25:26;;;;;;;;;;;;;;;17.13;53.15;99456.84;4963151;28;7695;-75
2023/03/23 10:28:25;;;;;;;;;;;;;;;17.21;52.76;99455.19;4982324;28;8065;-75
2023/03/23 10:30:57;;;;;;;;;;;;;;;17.30;52.61;99469.03;4978126;28;7315;-75
2023/03/23 10:33:38;;;;;;;;;;;;;;;17.39;52.87;99471.69;4978874;28;7019;-75
2023/03/23 10:36:17;;;;;;;;;;;;;;;17.40;52.53;99462.19;4984332;28;7145;-75
2023/03/23 10:39:11;;;;;;;;;;;;;;;17.30;52.30;99469.03;4968248;28;7289;-75
2023/03/23 10:41:37;;;;;;;;;;;;;;;17.20;52.87;99475.91;4980796;28;7317;-75
2023/03/23 10:44:21;;;;;;;;;;;;;;;17.12;52.80;99482.75;4971980;28;6804;-75
2023/03/23 10:47:02;;;;;;;;;;;;;;;17.04;52.75;99490.44;4986857;28;6832;-75
2023/03/23 10:49:48;;;;;;;;;;;;;;;17.01;53.01;99499.06;4969469;28;7106;-75
2023/03/23 10:52:38;;;;;;;;;;;;;;;16.94;52.80;99505.88;4985390;28;6792;-75
2023/03/23 10:55:16;;;;;;;;;;;;;;;16.93;53.60;99508.47;4980938;28;6864;-75
2023/03/23 10:58:00;;;;;;;;;;;;;;;16.96;53.59;99507.63;4977400;28;6804;-75
2023/03/23 11:00:28;;;;;;;;;;;;;;;17.01;54.16;99505.97;4985841;28;7247;-75
2023/03/23 11:03:03;;;;;;;;;;;;;;;17.06;54.01;99512.91;4983657;28;7316;-75
2023/03/23 11:05:58;;;;;;;;;;;;;;;17.07;53.78;99517.22;4970294;28;6817;-75
2023/03/23 11:08:33;;;;;;;;;;;;;;;16.94;53.45;99505.03;4985905;28;7151;-75
2023/03/23 11:11:15;;;;;;;;;;;;;;;16.76;53.62;99511.78;4978333;28;7004;-75
2023/03/23 11:13:47;;;;;;;;;;;;;;;16.60;54.46;99504.72;4993159;28;6888;-75
2023/03/23 11:16:33;;;;;;;;;;;;;;;16.45;54.49;99505.47;4989057;28;7065;-75
2023/03/23 11:19:11;;;;;;;;;;;;;;;16.38;55.42;99508.00;4966480;28;6811;-74
2023/03/23 11:21:39;;;;;;;;;;;;;;;16.42;55.99;99508.91;4984595;28;6803;-75
2023/03/23 11:24:05;;;;;;;;;;;;;;;16.50;56.18;99498.63;4974298;28;6792;-74
2023/03/23 11:26:37;;;;;;;;;;;;;;;16.60;56.32;99505.63;4987157;28;7038;-75
2023/03/23 11:29:11;;;;;;;;;;;;;;;16.74;56.26;99492.78;4987844;28;6826;-75
2023/03/23 11:31:45;;;;;;;;;;;;;;;16.94;57.01;99499.84;4988305;28;6796;-75
2023/03/23 11:34:17;;;;;;;;;;;;;;;17.11;56.61;99486.19;4983518;28;7021;-75
2023/03/23 11:36:52;;;;;;;;;;;;;;;17.26;56.22;99493.19;4962026;28;6963;-75
2023/03/23 11:39:26;;;;;;;;;;;;;;;17.35;55.96;99486.34;4947594;28;6996;-75
2023/03/23 11:41:54;;;;;;;;;;;;;;;17.45;56.06;99481.19;4984835;28;7125;-75
2023/03/23 11:44:23;;;;;;;;;;;;;;;17.59;56.16;99481.28;4981012;28;7301;-75
2023/03/23 11:47:13;;;;;;;;;;;;;;;17.70;56.35;99494.28;4979919;28;6799;-75
2023/03/23 11:50:12;;;;;;;;;;;;;;;17.84;55.64;99471.00;4973699;28;6816;-75
2023/03/23 11:53:08;;;;;;;;;;;;;;;17.97;56.01;99490.06;4974697;28;6796;-75
2023/03/23 11:55:45;;;;;;;;;;;;;;;18.04;54.93;99494.41;4986320;28;7071;-75
2023/03/23 11:58:16;;;;;;;;;;;;;;;18.02;54.88;99509.09;4969426;28;6951;-75
2023/03/23 12:00:57;;;;;;;;;;;;;;;17.94;54.76;99515.97;4963292;28;7229;-75
2023/03/23 12:03:59;;;;;;;;;;;;;;;17.72;54.49;99502.94;4963225;28;8452;-75
2023/03/23 12:06:41;;;;;;;;;;;;;;;17.58;55.48;99457.09;4987204;28;6820;-75
2023/03/23 12:09:46;;;;;;;;;;;;;;;17.80;57.20;99467.53;4983106;28;7694;-75
2023/03/23 12:13:13;;;;;;;;;;;;;;;18.51;56.67;99461.66;4986541;28;6824;-75
2023/03/23 12:16:02;;;;;;;;;;;;;;;19.38;55.81;99469.38;4982074;28;6845;-75
2023/03/23 12:18:57;;;;;;;;;;;;;;;20.10;53.76;99450.84;4986142;28;6876;-75
2023/03/23 12:21:59;;;;;;;;;;;;;;;20.35;52.47;99446.34;4984950;28;6868;-75
2023/03/23 12:25:20;;;;;;;;;;;;;;;20.38;51.86;99461.97;4978139;28;6824;-75
2023/03/23 12:28:03;;;;;;;;;;;;;;;20.22;51.31;99447.31;4959435;28;7145;-74
2023/03/23 12:31:10;;;;;;;;;;;;;;;19.98;51.29;99447.47;4987152;28;7225;-75
2023/03/23 12:33:49;;;;;;;;;;;;;;;19.74;51.28;99457.94;4986203;28;6887;-75
2023/03/23 12:36:52;;;;;;;;;;;;;;;19.51;51.03;99465.00;4983175;28;6971;-75
2023/03/23 12:40:07;;;;;;;;;;;;;;;19.31;51.70;99466.78;4987393;28;7223;-75
2023/03/23 12:42:55;;;;;;;;;;;;;;;19.13;51.63;99455.59;4985283;28;6800;-75
2023/03/23 12:45:23;;;;;;;;;;;;;;;19.00;51.04;99468.56;4985080;28;6979;-75
2023/03/23 12:48:02;;;;;;;;;;;;;;;18.89;51.76;99467.69;4987722;28;6796;-75
2023/03/23 12:50:56;;;;;;;;;;;;;;;18.85;51.66;99468.56;4981075;28;7055;-75
2023/03/23 12:53:54;;;;;;;;;;;;;;;18.87;52.06;99479.81;4958552;28;6995;-75
2023/03/23 12:56:45;;;;;;;;;;;;;;;18.96;51.26;99465.94;4966361;28;7014;-75
2023/03/23 12:59:38;;;;;;;;;;;;;;;18.95;51.02;99467.69;4972145;28;6948;-74
2023/03/23 13:02:25;;;;;;;;;;;;;;;18.84;51.52;99464.25;4969428;28;8390;-75
2023/03/23 13:05:23;;;;;;;;;;;;;;;18.68;52.13;99459.06;4966101;28;6804;-75
2023/03/23 13:08:18;;;;;;;;;;;;;;;18.52;52.26;99470.28;4979344;28;6941;-74
2023/03/23 13:10:55;;;;;;;;;;;;;;;18.38;53.19;99470.28;4980238;28;6800;-75
2023/03/23 13:13:26;;;;;;;;;;;;;;;18.28;52.88;99480.63;4979644;28;6804;-75
2023/03/23 13:16:07;;;;;;;;;;;;;;;18.20;53.33;99484.09;4984156;28;6864;-75
2023/03/23 13:19:07;;;;;;;;;;;;;;;18.11;53.53;99492.75;4980640;28;7158;-75
2023/03/23 13:22:20;;;;;;;;;;;;;;;17.97;54.07;99475.38;4978115;28;6876;-75
2023/03/23 13:24:59;;;;;;;;;;;;;;;17.77;54.84;99478.75;4982424;28;6999;-75
2023/03/23 13:27:28;;;;;;;;;;;;;;;17.65;54.46;99493.38;4979078;28;7126;-75
2023/03/23 13:29:55;;;;;;;;;;;;;;;17.55;54.99;99493.34;4986665;28;8615;-75
2023/03/23 13:32:36;;;;;;;;;;;;;;;17.49;55.35;99498.50;4985434;28;7709;-75